Terminal Aerodrome Forecast
Issued by NWS St Louis, MO

Home | Current Version | Previous Version | Text Only | Print | Product List | Glossary On
Versions: 1 2 3 4 5 6 7 8 9 10 11 12 13 14 15 16 17 18 19 20 21 22 23 24
000
FTUS43 KLSX 131724
TAFSTL
TAF
KSTL 131724Z 1318/1424 27020G31KT P6SM BKN250
     FM140000 31016G24KT P6SM SCT050
     FM140400 32011G20KT P6SM BKN020
     FM140800 33010G17KT P6SM SCT030
     FM141100 34007KT P6SM SCT090=

USA.gov is the U.S. government's official web portal to all federal, state and local government web resources and services.